ESGG/GOT METAR and TAF weather

Enter ICAO airport designator
Station Type Date Time Source
ESGG METAR 2021/03/01 03:20 UTC NOAA

ESGG 010320Z 20006KT 0100 R03/0450N R21/0450N FZFG VV002 M00/M01 Q1029 R21/09//95


Station Type Date Time Source
ESGG Decoded METAR 2021/03/01 03:20 UTC NOAA

Goteborg / Landvetter, Sweden (ESGG) 57-40N 012-18E
Feb 28, 2021 - 10:20 PM EST / 2021.03.01 0320 UTC
Wind: from the SSW (200 degrees) at 7 MPH (6 KT):0
Visibility: less than 1 mile:0
Sky conditions: obscured
Weather: freezing fog
Temperature: 32 F (0 C)
Windchill: 24 F (-4 C):1
Dew Point: 30 F (-1 C)
Relative Humidity: 92%
Pressure (altimeter): 30.39 in. Hg (1029 hPa)
ob: ESGG 010320Z 20006KT 0100 R03/0450N R21/0450N FZFG VV002 M00/M01 Q1029 R21/09//95
cycle: 3

Station Type Date Time Source
ESGG TAF 2021/02/28 21:42 UTC NOAA

TAF
AMD TAF
AMD ESGG 282135Z 2821/0118 19004KT 9999 BCFG NSC
BECMG 2821/2823 0200 FZFG VV002
TEMPO 2823/0108 0800 BCFG
BECMG 0108/0110 CAVOK

Example: see airport list